Home > Products > Valid Products > TAF

000
FTUS41 KPHI 260500
TAFILG
TAF
KILG 260520Z 2606/2706 24008KT P6SM SCT050 BKN100
     FM260800 29009KT P6SM SCT100
     FM261400 30018G28KT P6SM FEW050
     FM262100 29014G24KT P6SM BKN050
     FM270100 30009KT P6SM SKC=



000
FTUS41 KPHI 260500
TAFRDG
TAF
KRDG 260520Z 2606/2706 30007KT P6SM SCT100
     FM261400 30015G25KT P6SM SCT050
     FM262100 30012G20KT P6SM BKN050
     FM270000 31007KT P6SM SKC=



000
FTUS41 KPHI 260500
TAFMIV
TAF
KMIV 260520Z 2606/2706 25006KT P6SM SCT050 BKN100
     FM261000 29008KT P6SM SCT100
     FM261400 30015G28KT P6SM FEW050
     FM262200 30015G20KT P6SM FEW050
     FM270000 30007KT P6SM SKC=



000
FTUS41 KPHI 260500
TAFPNE
TAF
KPNE 260520Z 2606/2706 27007KT P6SM SCT050 BKN100
     FM261400 31017G27KT P6SM SCT050
     FM262100 31012G22KT P6SM BKN050
     FM270000 32008KT P6SM SKC=



000
FTUS41 KPHI 260500
TAFACY
TAF
KACY 260520Z 2606/2706 24005KT P6SM SCT050 BKN100
     FM261000 28010KT P6SM SCT100
     FM261400 30018G28KT P6SM FEW050
     FM262200 30014G22KT P6SM FEW050
     FM270000 30010KT P6SM SKC=



000
FTUS41 KPHI 260500
TAFPHL
TAF
KPHL 260520Z 2606/2712 24009KT P6SM SCT050 BKN100
     FM260800 29012KT P6SM SCT100
     FM261400 30018G28KT P6SM FEW050
     FM262100 29016G24KT P6SM BKN050
     FM270100 30009KT P6SM SKC=



000
FTUS41 KPHI 260500
TAFTTN
TAF
KTTN 260520Z 2606/2706 27007KT P6SM SCT050 BKN100
     FM260800 31009KT P6SM SCT100
     FM261400 31016G28KT P6SM SCT050
     FM262100 32012G22KT P6SM BKN050
     FM270000 33008KT P6SM SKC=



000
FTUS41 KPHI 260500
TAFPHL
TAF
KPHL 260520Z 2606/2712 24009KT P6SM SCT050 BKN100
     FM260800 29012KT P6SM SCT100
     FM261400 30018G28KT P6SM FEW050
     FM262100 29016G24KT P6SM BKN050
     FM270100 30009KT P6SM SKC=



000
FTUS41 KPHI 260500
TAFABE
TAF
KABE 260520Z 2606/2706 28006KT P6SM SCT100
     FM261400 30017G27KT P6SM SCT050
     FM262100 30012G22KT P6SM BKN050
     FM270000 30007KT P6SM SKC=



000
FTUS41 KPHI 260500
TAFTTN
TAF
KTTN 260520Z 2606/2706 27007KT P6SM SCT050 BKN100
     FM260800 31009KT P6SM SCT100
     FM261400 31016G28KT P6SM SCT050
     FM262100 32012G22KT P6SM BKN050
     FM270000 33008KT P6SM SKC=



000
FTUS41 KPHI 260500
TAFABE
TAF
KABE 260520Z 2606/2706 28006KT P6SM SCT100
     FM261400 30017G27KT P6SM SCT050
     FM262100 30012G22KT P6SM BKN050
     FM270000 30007KT P6SM SKC=



000
FTUS41 KPHI 260500
TAFPNE
TAF
KPNE 260520Z 2606/2706 27007KT P6SM SCT050 BKN100
     FM261400 31017G27KT P6SM SCT050
     FM262100 31012G22KT P6SM BKN050
     FM270000 32008KT P6SM SKC=



000
FTUS41 KPHI 260500
TAFACY
TAF
KACY 260520Z 2606/2706 24005KT P6SM SCT050 BKN100
     FM261000 28010KT P6SM SCT100
     FM261400 30018G28KT P6SM FEW050
     FM262200 30014G22KT P6SM FEW050
     FM270000 30010KT P6SM SKC=



000
FTUS41 KPHI 260500
TAFMIV
TAF
KMIV 260520Z 2606/2706 25006KT P6SM SCT050 BKN100
     FM261000 29008KT P6SM SCT100
     FM261400 30015G28KT P6SM FEW050
     FM262200 30015G20KT P6SM FEW050
     FM270000 30007KT P6SM SKC=



000
FTUS41 KPHI 260500
TAFRDG
TAF
KRDG 260520Z 2606/2706 30007KT P6SM SCT100
     FM261400 30015G25KT P6SM SCT050
     FM262100 30012G20KT P6SM BKN050
     FM270000 31007KT P6SM SKC=



000
FTUS41 KPHI 260500
TAFILG
TAF
KILG 260520Z 2606/2706 24008KT P6SM SCT050 BKN100
     FM260800 29009KT P6SM SCT100
     FM261400 30018G28KT P6SM FEW050
     FM262100 29014G24KT P6SM BKN050
     FM270100 30009KT P6SM SKC=



000
FTUS41 KPHI 252300
TAFPNE
TAF
KPNE 252321Z 2600/2624 23010KT P6SM BKN070
     FM260500 27007KT P6SM SKC
     FM261400 31017G27KT P6SM SCT050
     FM262300 32010KT P6SM SKC=



000
FTUS41 KPHI 252300
TAFMIV
TAF
KMIV 252321Z 2600/2624 23003KT P6SM SKC
     FM260600 27006KT P6SM SKC
     FM261400 30015G25KT P6SM FEW050
     FM262300 30007KT P6SM SKC=



000
FTUS41 KPHI 252300
TAFACY
TAF
KACY 252321Z 2600/2624 21005KT P6SM FEW070
     FM260600 27005KT P6SM SKC
     FM261400 30018G28KT P6SM FEW050
     FM262300 31010KT P6SM SKC=



000
FTUS41 KPHI 252300
TAFRDG
TAF
KRDG 252321Z 2600/2624 24005KT P6SM SCT070
     FM260300 29006KT P6SM SKC
     FM261400 30015G25KT P6SM SCT050
     FM262200 31010KT P6SM SKC=



000
FTUS41 KPHI 252300
TAFABE
TAF
KABE 252321Z 2600/2624 23006KT P6SM BKN070
     FM260400 28006KT P6SM SKC
     FM261400 30017G27KT P6SM SCT050
     FM262200 30010KT P6SM SKC=



000
FTUS41 KPHI 252300
TAFPHL
TAF
KPHL 252321Z 2600/2706 23007KT P6SM SCT070
     FM260500 27009KT P6SM SKC
     FM261400 30018G28KT P6SM FEW050
     FM262300 30012KT P6SM SKC=



000
FTUS41 KPHI 252300
TAFTTN
TAF
KTTN 252321Z 2600/2624 24005KT P6SM BKN070
     FM260400 27007KT P6SM SKC
     FM261400 31016G26KT P6SM SCT050
     FM262300 33010KT P6SM SKC=



000
FTUS41 KPHI 252300
TAFILG
TAF
KILG 252321Z 2600/2624 22005KT P6SM SCT070
     FM260500 28005KT P6SM SKC
     FM261400 30018G28KT P6SM FEW050
     FM262300 30010KT P6SM SKC=



000
FTUS41 KPHI 252100 AAA
TAFRDG
TAF AMD
KRDG 252106Z 2521/2618 24009KT P6SM SKC
     FM252300 28006KT P6SM BKN040
     FM261400 30016G25KT P6SM SCT050=



000
FTUS41 KPHI 252100 AAA
TAFMIV
TAF AMD
KMIV 252106Z 2521/2618 25010KT P6SM FEW040
     FM252300 27008KT P6SM SCT050
     FM261400 30014G23KT P6SM SCT050=



000
FTUS41 KPHI 252100 AAA
TAFABE
TAF AMD
KABE 252105Z 2521/2618 24012G18KT P6SM FEW060
     FM252300 28008KT P6SM BKN040
     FM261400 29016G25KT P6SM SCT050=



000
FTUS41 KPHI 251700
TAFMIV
TAF
KMIV 251727Z 2518/2618 29008G15KT P6SM FEW040
     FM252300 27008KT P6SM SCT050
     FM261400 30014G23KT P6SM SCT050=



000
FTUS41 KPHI 251700
TAFPHL
TAF
KPHL 251727Z 2518/2624 25012G18KT P6SM FEW040
     FM252300 27010KT P6SM SCT050
     FM261300 29018G28KT P6SM SCT050=



000
FTUS41 KPHI 251700
TAFTTN
TAF
KTTN 251727Z 2518/2618 27009G18KT P6SM FEW040
     FM252300 29008KT P6SM SCT050
     FM261400 31014G25KT P6SM SCT050=



000
FTUS41 KPHI 251700
TAFACY
TAF
KACY 251727Z 2518/2618 27008G15KT P6SM FEW040
     FM252300 27008KT P6SM SCT050
     FM261400 30017G25KT P6SM SCT050=



000
FTUS41 KPHI 251700
TAFPNE
TAF
KPNE 251727Z 2518/2618 28008G15KT P6SM FEW040
     FM252300 27008KT P6SM SCT050
     FM261400 29016G25KT P6SM SCT050=



000
FTUS41 KPHI 251700
TAFRDG
TAF
KRDG 251727Z 2518/2618 26009G18KT P6SM FEW040
     FM252300 28006KT P6SM BKN040
     FM261400 30016G25KT P6SM SCT050=



000
FTUS41 KPHI 251700
TAFABE
TAF
KABE 251727Z 2518/2618 27010G18KT P6SM FEW050
     FM252300 28008KT P6SM BKN040
     FM261400 29016G25KT P6SM SCT050=



000
FTUS41 KPHI 251700
TAFILG
TAF
KILG 251727Z 2518/2618 25008G16KT P6SM FEW040
     FM252300 27010KT P6SM SCT050
     FM261400 30017G27KT P6SM SCT050=



000
FTUS41 KPHI 251400 AAA
TAFPHL
TAF AMD
KPHL 251459Z 2515/2618 27008KT P6SM FEW250
     FM251800 27012G22KT P6SM FEW040
     FM252300 24010KT P6SM SCT050
     FM260300 28010KT P6SM BKN050
     FM261300 29018G28KT P6SM SCT050=



000
FTUS41 KPHI 251100
TAFABE
TAF
KABE 251136Z 2512/2612 29005KT P6SM SKC
     FM251700 28012G22KT P6SM FEW040
     FM252300 26008KT P6SM BKN040
     FM260300 30008KT P6SM BKN040=



000
FTUS41 KPHI 251100
TAFMIV
TAF
KMIV 251136Z 2512/2612 28005KT P6SM SKC
     FM251700 27008G18KT P6SM FEW040
     FM252300 28008KT P6SM SCT050
     FM260400 28008KT P6SM BKN050=



000
FTUS41 KPHI 251100
TAFPHL
TAF
KPHL 251136Z 2512/2618 28008KT P6SM SKC
     FM251800 27012G22KT P6SM FEW040
     FM252300 24010KT P6SM SCT050
     FM260300 28010KT P6SM BKN050
     FM261300 29018G28KT P6SM SCT050=



000
FTUS41 KPHI 251100
TAFACY
TAF
KACY 251136Z 2512/2612 29008KT P6SM SKC
     FM251700 27010G18KT P6SM FEW040
     FM252300 28008KT P6SM SCT050
     FM260400 28010KT P6SM BKN050=



000
FTUS41 KPHI 251100
TAFILG
TAF
KILG 251136Z 2512/2612 26008KT P6SM SKC
     FM251800 28010G22KT P6SM FEW040
     FM252300 24010KT P6SM SCT050
     FM260300 28008KT P6SM BKN050=



000
FTUS41 KPHI 251100
TAFTTN
TAF
KTTN 251136Z 2512/2612 28006KT P6SM SKC
     FM251700 29012G22KT P6SM FEW040
     FM252300 22006KT P6SM SCT050
     FM260300 28010KT P6SM BKN050=



000
FTUS41 KPHI 251100
TAFRDG
TAF
KRDG 251136Z 2512/2612 31006KT P6SM SKC
     FM251700 28012G22KT P6SM FEW040
     FM252300 26008KT P6SM BKN040
     FM260300 30008KT P6SM BKN040=



000
FTUS41 KPHI 251100
TAFPNE
TAF
KPNE 251136Z 2512/2612 29005KT P6SM SKC
     FM251600 27010G18KT P6SM FEW040
     FM252300 22006KT P6SM SCT050
     FM260300 28010KT P6SM BKN050=



000
FTUS41 KPHI 251100
TAFMIV
TAF
KMIV 251136Z 2512/2612 28005KT P6SM SKC
     FM251700 27008G18KT P6SM FEW040
     FM252300 28008KT P6SM SCT050
     FM260400 28008KT P6SM BKN050=



000
FTUS41 KPHI 251100
TAFACY
TAF
KACY 251136Z 2512/2612 29008KT P6SM SKC
     FM251700 27010G18KT P6SM FEW040
     FM252300 28008KT P6SM SCT050
     FM260400 28010KT P6SM BKN050=



000
FTUS41 KPHI 251100
TAFABE
TAF
KABE 251136Z 2512/2612 29005KT P6SM SKC
     FM251700 28012G22KT P6SM FEW040
     FM252300 26008KT P6SM BKN040
     FM260300 30008KT P6SM BKN040=



000
FTUS41 KPHI 251100
TAFRDG
TAF
KRDG 251136Z 2512/2612 31006KT P6SM SKC
     FM251700 28012G22KT P6SM FEW040
     FM252300 26008KT P6SM BKN040
     FM260300 30008KT P6SM BKN040=



000
FTUS41 KPHI 251100
TAFTTN
TAF
KTTN 251136Z 2512/2612 28006KT P6SM SKC
     FM251700 29012G22KT P6SM FEW040
     FM252300 22006KT P6SM SCT050
     FM260300 28010KT P6SM BKN050=



000
FTUS41 KPHI 251100
TAFILG
TAF
KILG 251136Z 2512/2612 26008KT P6SM SKC
     FM251800 28010G22KT P6SM FEW040
     FM252300 24010KT P6SM SCT050
     FM260300 28008KT P6SM BKN050=



000
FTUS41 KPHI 251100
TAFPHL
TAF
KPHL 251136Z 2512/2618 28008KT P6SM SKC
     FM251800 27012G22KT P6SM FEW040
     FM252300 24010KT P6SM SCT050
     FM260300 28010KT P6SM BKN050
     FM261300 29018G28KT P6SM SCT050=



000
FTUS41 KPHI 251100
TAFPNE
TAF
KPNE 251136Z 2512/2612 29005KT P6SM SKC
     FM251600 27010G18KT P6SM FEW040
     FM252300 22006KT P6SM SCT050
     FM260300 28010KT P6SM BKN050=



000
FTUS41 KPHI 250800 AAA
TAFPHL
TAF AMD
KPHL 250854Z 2509/2612 30006KT P6SM SKC
     FM251600 27011G19KT P6SM FEW040
     FM252300 24010KT P6SM SCT050
     FM260300 28010KT P6SM BKN050=



000
FTUS41 KPHI 250500 RRA
TAFRDG
TAF
KRDG 250540Z 2506/2606 31006KT P6SM FEW200
      TEMPO 2512/2515 BKN035
     FM251700 28010G18KT P6SM FEW040
     FM252300 26008KT P6SM BKN040=



000
FTUS41 KPHI 250500 RRA
TAFPNE
TAF
KPNE 250540Z 2506/2606 31008KT P6SM SCT200
     FM251600 27010G18KT P6SM FEW040
     FM252300 22006KT P6SM SCT050
     FM260300 28010KT P6SM BKN050=



000
FTUS41 KPHI 250500 RRA
TAFILG
TAF
KILG 250540Z 2506/2606 30009KT P6SM SCT200
     FM251700 28010G18KT P6SM FEW040
     FM252300 24010KT P6SM SCT050
     FM260300 28008KT P6SM BKN050=



000
FTUS41 KPHI 250500 RRA
TAFACY
TAF
KACY 250540Z 2506/2606 29008KT P6SM SCT200
     FM251700 27010G18KT P6SM SKC
     FM260400 28010KT P6SM BKN050=



000
FTUS41 KPHI 250500 RRA
TAFTTN
TAF
KTTN 250540Z 2506/2606 33007KT P6SM SCT200
     FM251700 29010G18KT P6SM FEW040
     FM252300 22006KT P6SM SCT050
     FM260300 28010KT P6SM BKN050=



000
FTUS41 KPHI 250500 RRA
TAFPHL
TAF
KPHL 250540Z 2506/2612 30008KT P6SM SCT200
     FM251600 27011G19KT P6SM FEW040
     FM252300 24010KT P6SM SCT050
     FM260300 28010KT P6SM BKN050=



000
FTUS41 KPHI 250500 RRA
TAFABE
TAF
KABE 250540Z 2506/2606 31007KT P6SM FEW200
      TEMPO 2512/2515 BKN035
     FM251700 28010G18KT P6SM FEW040
     FM252300 26008KT P6SM BKN040=



000
FTUS41 KPHI 250500 RRA
TAFMIV
TAF
KMIV 250540Z 2506/2606 29005KT P6SM SCT200
     FM251700 27008KT P6SM SKC
     FM260400 28010KT P6SM BKN050=



000
FTUS41 KPHI 242300
TAFTTN
TAF
KTTN 242320Z 2500/2524 33007KT P6SM SCT200
     FM251700 29010G18KT P6SM FEW040=



000
FTUS41 KPHI 242300
TAFPHL
TAF
KPHL 242320Z 2500/2606 30010KT P6SM SCT200
     FM251600 27011G19KT P6SM FEW040
     FM252300 21010KT P6SM SCT050=



000
FTUS41 KPHI 242300
TAFACY
TAF
KACY 242320Z 2500/2524 29008KT P6SM SCT200
     FM251700 27010G18KT P6SM SKC=



000
FTUS41 KPHI 242300
TAFRDG
TAF
KRDG 242320Z 2500/2524 31006KT P6SM FEW200
     FM251700 28010G18KT P6SM FEW040=



000
FTUS41 KPHI 242300
TAFMIV
TAF
KMIV 242320Z 2500/2524 29005KT P6SM SCT200
     FM251700 27008KT P6SM SKC=



000
FTUS41 KPHI 242300
TAFABE
TAF
KABE 242320Z 2500/2524 31007KT P6SM FEW200
     FM251700 28010G18KT P6SM FEW040=



000
FTUS41 KPHI 242300
TAFPNE
TAF
KPNE 242320Z 2500/2524 31008KT P6SM SCT200
     FM251600 27010G18KT P6SM FEW040=



000
FTUS41 KPHI 242300
TAFILG
TAF
KILG 242320Z 2500/2524 30009KT P6SM SCT200
     FM251700 28010G18KT P6SM FEW040=



000
FTUS41 KPHI 242100 AAA
TAFILG
TAF AMD
KILG 242108Z 2421/2518 31009KT P6SM SCT200
     FM251700 28010G18KT P6SM FEW050=



000
FTUS41 KPHI 242100 AAA
TAFPNE
TAF AMD
KPNE 242108Z 2421/2518 31008KT P6SM SCT200
     FM251700 28010G18KT P6SM FEW050=



000
FTUS41 KPHI 242100 AAA
TAFACY
TAF AMD
KACY 242108Z 2421/2518 30008KT P6SM SCT200
     FM251700 28010G18KT P6SM SKC=



000
FTUS41 KPHI 242100 AAA
TAFABE
TAF AMD
KABE 242100Z 2421/2518 31007KT P6SM SCT200
     FM251700 28010G18KT P6SM FEW045=



000
FTUS41 KPHI 242100 AAA
TAFRDG
TAF AMD
KRDG 242100Z 2421/2518 31006KT P6SM SCT200
     FM251700 28010G18KT P6SM FEW045=



000
FTUS41 KPHI 242100 AAA
TAFTTN
TAF AMD
KTTN 242100Z 2421/2518 34007KT P6SM SCT200
     FM251700 30010G18KT P6SM FEW045=



000
FTUS41 KPHI 242000 AAA
TAFPHL
TAF AMD
KPHL 242022Z 2420/2524 30011KT P6SM SCT200
     FM251700 27011G19KT P6SM FEW050=



000
FTUS41 KPHI 241900 AAA
TAFMIV
TAF AMD
KMIV 241923Z 2419/2518 31008G16KT P6SM SCT200
     FM242300 30005KT P6SM SCT200
     FM251700 28010G17KT P6SM SKC=



000
FTUS41 KPHI 241700
TAFACY
TAF
KACY 241731Z 2418/2518 31016G24KT P6SM SCT050
     FM242300 30004KT P6SM SCT200
     FM251700 28010G18KT P6SM SKC=



000
FTUS41 KPHI 241700
TAFILG
TAF
KILG 241731Z 2418/2518 30013G23KT P6SM FEW050
     FM242300 31008KT P6SM SCT200
     FM251700 28010G18KT P6SM FEW050=



000
FTUS41 KPHI 241700
TAFABE
TAF
KABE 241731Z 2418/2518 33015G23KT P6SM FEW050
     FM242200 31005KT P6SM SCT200
     FM251700 28010G18KT P6SM FEW045=



000
FTUS41 KPHI 241700
TAFRDG
TAF
KRDG 241731Z 2418/2518 31014G21KT P6SM FEW050
     FM242200 31005KT P6SM SCT200
     FM251700 28010G18KT P6SM FEW045=



000
FTUS41 KPHI 241700
TAFPHL
TAF
KPHL 241731Z 2418/2524 32014G23KT P6SM FEW050
     FM242300 30011KT P6SM SCT200
     FM251700 27011G19KT P6SM FEW050=



000
FTUS41 KPHI 241700
TAFPNE
TAF
KPNE 241731Z 2418/2518 31013G20KT P6SM FEW050
     FM242300 31008KT P6SM SCT200
     FM251700 28010G18KT P6SM FEW050=



000
FTUS41 KPHI 241700
TAFTTN
TAF
KTTN 241731Z 2418/2518 35014G23KT P6SM SCT045
     FM242300 34007KT P6SM SCT200
     FM251700 30010G18KT P6SM FEW045=



000
FTUS41 KPHI 241700
TAFMIV
TAF
KMIV 241731Z 2418/2518 31013G23KT P6SM FEW045
     FM242300 30005KT P6SM SCT200
     FM251700 28010G17KT P6SM SKC=



000
FTUS41 KPHI 241700 AAB
TAFTTN
TAF AMD
KTTN 241711Z 2417/2512 35014G22KT P6SM FEW045
     FM242300 34007KT P6SM SCT200=



000
FTUS41 KPHI 241700 AAA
TAFILG
TAF AMD
KILG 241710Z 2417/2512 30013G25KT P6SM FEW045
     FM242300 30008KT P6SM SCT200=



000
FTUS41 KPHI 241700 AAB
TAFMIV
TAF AMD
KMIV 241710Z 2417/2512 31013G22KT P6SM FEW045
     FM242200 30004KT P6SM SCT200=



000
FTUS41 KPHI 241700 AAA
TAFRDG
TAF AMD
KRDG 241710Z 2417/2512 31014G23KT P6SM FEW050
     FM242200 31005KT P6SM SCT200=



000
FTUS41 KPHI 241700 AAB
TAFPNE
TAF AMD
KPNE 241709Z 2417/2512 31013G25KT P6SM SKC
     FM242300 30008KT P6SM SCT200=



000
FTUS41 KPHI 241600 AAB
TAFPHL
TAF AMD
KPHL 241611Z 2416/2518 33013G25KT P6SM SCT045
     FM242300 30010KT P6SM SCT200
     FM251700 27010G18KT P6SM SCT045=



000
FTUS41 KPHI 241600 AAB
TAFABE
TAF AMD
KABE 241610Z 2416/2512 33015G25KT P6SM SCT045
     FM242200 31005KT P6SM SCT200=



000
FTUS41 KPHI 241500 AAA
TAFABE
TAF AMD
KABE 241509Z 2415/2512 31011G22KT P6SM SCT040
      TEMPO 2416/2420 BKN040
     FM242200 31005KT P6SM SCT200=



000
FTUS41 KPHI 241500 AAA
TAFTTN
TAF AMD
KTTN 241507Z 2415/2512 35012G22KT P6SM BKN040
      TEMPO 2416/2420 SCT040
     FM242000 33011G20KT P6SM SCT040
     FM242300 34007KT P6SM SCT200=



000
FTUS41 KPHI 241500 AAA
TAFMIV
TAF AMD
KMIV 241505Z 2415/2512 34013G21KT P6SM SCT040
      TEMPO 2416/2420 BKN040
     FM242200 30004KT P6SM SCT200=



000
FTUS41 KPHI 241500 AAA
TAFPHL
TAF AMD
KPHL 241504Z 2415/2518 32013G24KT P6SM BKN045
      TEMPO 2415/2419 SCT045
     FM241900 32012G22KT P6SM SCT050
     FM242300 30010KT P6SM SCT200
     FM251700 27010G18KT P6SM SCT045=



000
FTUS41 KPHI 241400 AAA
TAFPNE
TAF AMD
KPNE 241411Z 2414/2512 34015G25KT P6SM BKN040
      TEMPO 2414/2416 SCT040
     FM241900 32012G24KT P6SM BKN050
     FM242300 30008KT P6SM SCT200=



000
FTUS41 KPHI 241400 AAA
TAFPNE
TAF AMD
KPNE 241411Z 2414/2512 34015G25KT P6SM BKN040
      TEMPO 2414/2416 SCT040
     FM241900 32012G24KT P6SM BKN050
     FM242300 30008KT P6SM SCT200=



000
FTUS41 KPHI 241100
TAFABE
TAF
KABE 241137Z 2412/2512 33012G22KT P6SM OVC035
     FM241500 32013G23KT P6SM BKN045
     FM242200 31005KT P6SM SCT200=



000
FTUS41 KPHI 241100
TAFPHL
TAF
KPHL 241137Z 2412/2518 32011G20KT P6SM BKN035
     FM241500 32014G24KT P6SM BKN045
     FM242300 30010KT P6SM SCT200
     FM251600 27010KT P6SM SCT035=



000
FTUS41 KPHI 241100
TAFMIV
TAF
KMIV 241137Z 2412/2512 31008G16KT P6SM BKN035
     FM241500 31012G22KT P6SM BKN050
     FM242200 30004KT P6SM SCT200=



000
FTUS41 KPHI 241100
TAFRDG
TAF
KRDG 241137Z 2412/2512 32012G20KT P6SM OVC035
     FM241500 32012G22KT P6SM BKN050
     FM242200 31005KT P6SM SCT200=



000
FTUS41 KPHI 241100
TAFILG
TAF
KILG 241137Z 2412/2512 32010G20KT P6SM BKN035
     FM241500 32014G24KT P6SM BKN045
     FM242300 30008KT P6SM SCT200=



000
FTUS41 KPHI 241100
TAFPNE
TAF
KPNE 241137Z 2412/2512 32010G18KT P6SM BKN035
     FM241500 32012G24KT P6SM BKN040
     FM242300 30008KT P6SM SCT200=



000
FTUS41 KPHI 241100
TAFTTN
TAF
KTTN 241137Z 2412/2512 34010G20KT P6SM OVC027
     FM241400 33012G24KT P6SM BKN040
     FM242300 31007KT P6SM SCT200=



000
FTUS41 KPHI 241100
TAFACY
TAF
KACY 241137Z 2412/2512 31008G16KT P6SM BKN035
     FM241500 31014G24KT P6SM BKN050
     FM242300 30006KT P6SM SCT200=



000
FTUS41 KPHI 240900 AAB
TAFPHL
TAF AMD
KPHL 240903Z 2409/2512 32010KT P6SM FEW025 BKN040
      TEMPO 2409/2411 BKN025
     FM241400 32014G24KT P6SM FEW025 BKN050
     FM242300 30008KT P6SM BKN200=



000
FTUS41 KPHI 240800 AAA
TAFTTN
TAF AMD
KTTN 240812Z 2408/2506 34009KT P6SM FEW020 BKN040
      TEMPO 2408/2411 BKN025
     FM241400 33010G18KT P6SM FEW025 BKN050
     FM242300 30008KT P6SM BKN200=



000
FTUS41 KPHI 240800 AAA
TAFTTN
TAF AMD
KTTN 240812Z 2408/2506 34009KT P6SM FEW020 BKN040
      TEMPO 2408/2411 BKN025
     FM241400 33010G18KT P6SM FEW025 BKN050
     FM242300 30008KT P6SM BKN200=



000
FTUS41 KPHI 240800 AAA
TAFPNE
TAF AMD
KPNE 240804Z 2408/2506 32011KT P6SM FEW020 BKN050
      TEMPO 2408/2411 BKN025
     FM241400 32012G22KT P6SM FEW025 BKN050
     FM242300 30008KT P6SM BKN200=



000
FTUS41 KPHI 240800 AAA
TAFPNE
TAF AMD
KPNE 240804Z 2408/2506 32011KT P6SM FEW020 BKN050
      TEMPO 2408/2411 BKN025
     FM241400 32012G22KT P6SM FEW025 BKN050
     FM242300 30008KT P6SM BKN200=



000
FTUS41 KPHI 240700 AAA
TAFPHL
TAF AMD
KPHL 240704Z 2407/2512 32010KT P6SM FEW025 BKN070
      TEMPO 2407/2411 BKN025
     FM241400 32014G24KT P6SM FEW025 BKN050
     FM242300 30008KT P6SM BKN200=



000
FTUS41 KPHI 240500
TAFILG
TAF
KILG 240535Z 2406/2506 32010KT P6SM BKN080
     FM241400 32014G24KT P6SM FEW025 BKN050
     FM242300 30008KT P6SM BKN200=



000
FTUS41 KPHI 240500
TAFACY
TAF
KACY 240535Z 2406/2506 31010KT P6SM OVC035
     FM241400 31014G24KT P6SM SCT025 BKN050
     FM242300 30008KT P6SM BKN200=



000
FTUS41 KPHI 240500
TAFTTN
TAF
KTTN 240535Z 2406/2506 34009KT P6SM FEW020 BKN040
     FM241400 33010G18KT P6SM FEW025 BKN050
     FM242300 30008KT P6SM BKN200=



000
FTUS41 KPHI 240500
TAFPHL
TAF
KPHL 240535Z 2406/2512 32010KT P6SM FEW035 BKN070
     FM241400 32014G24KT P6SM FEW025 BKN050
     FM242300 30008KT P6SM BKN200=



000
FTUS41 KPHI 240500
TAFABE
TAF
KABE 240535Z 2406/2506 33010KT P6SM BKN025 OVC060
     FM241400 32012G22KT P6SM FEW025 BKN060
     FM242200 31005KT P6SM BKN200=



000
FTUS41 KPHI 240500
TAFPNE
TAF
KPNE 240535Z 2406/2506 32011KT P6SM FEW020 BKN050
     FM241400 32012G22KT P6SM FEW025 BKN050
     FM242300 30008KT P6SM BKN200=



000
FTUS41 KPHI 240500
TAFRDG
TAF
KRDG 240535Z 2406/2506 32010KT P6SM BKN025 OVC035
     FM241400 32012G22KT P6SM FEW025 BKN060
     FM242200 31005KT P6SM BKN200=



000
FTUS41 KPHI 240500
TAFMIV
TAF
KMIV 240535Z 2406/2506 31006KT P6SM BKN090
     FM241400 31011G20KT P6SM SCT025 BKN050
     FM242200 30004KT P6SM BKN200=



000
FTUS41 KPHI 240400 AAA
TAFABE
TAF AMD
KABE 240427Z 2404/2424 33010KT P6SM SCT025 OVC060
      TEMPO 2404/2406 BKN025 OVC060
     FM240900 32009KT P6SM BKN020
     FM241400 32012G20KT P6SM SCT045=



000
FTUS41 KPHI 232300
TAFACY
TAF
KACY 232320Z 2400/2424 31010KT P6SM OVC035
     FM241400 31012G20KT P6SM SCT035=



000
FTUS41 KPHI 232300
TAFABE
TAF
KABE 232320Z 2400/2424 33010KT P6SM OVC060
      TEMPO 2400/2402 BKN025 OVC060
     FM240900 32009KT P6SM BKN020
     FM241400 32012G20KT P6SM SCT045=



000
FTUS41 KPHI 232300
TAFMIV
TAF
KMIV 232320Z 2400/2424 31006KT P6SM BKN090
     FM241400 31008G16KT P6SM SCT035=



000
FTUS41 KPHI 232300
TAFPNE
TAF
KPNE 232320Z 2400/2424 32011KT P6SM BKN050
     FM240900 32010KT P6SM FEW020 BKN040
     FM241400 32012G20KT P6SM SCT045=



000
FTUS41 KPHI 232300
TAFPHL
TAF
KPHL 232320Z 2400/2506 32011G20KT P6SM FEW035 BKN060
     FM240200 32010KT P6SM FEW035 BKN070
     FM241400 32012G20KT P6SM BKN035
     FM241700 32010G18KT P6SM SCT045
     FM250000 33007KT P6SM BKN200=



000
FTUS41 KPHI 232300
TAFTTN
TAF
KTTN 232320Z 2400/2424 32010KT P6SM OVC050
     FM240900 34009KT P6SM FEW020 BKN040
     FM241400 33010G18KT P6SM SCT045=



000
FTUS41 KPHI 232300
TAFILG
TAF
KILG 232320Z 2400/2424 32011G21KT P6SM OVC080
     FM240200 32010KT P6SM BKN080
     FM241400 32013G20KT P6SM SCT045=



000
FTUS41 KPHI 232300
TAFRDG
TAF
KRDG 232320Z 2400/2424 33011KT P6SM SCT035 BKN060
     FM240900 32009KT P6SM BKN025 OVC040
     FM241400 32012G20KT P6SM BKN045
     FM241700 32010G18KT P6SM SCT045=



000
FTUS41 KPHI 232100 AAB
TAFACY
TAF AMD
KACY 232138Z 2322/2418 31014G22KT P6SM FEW025 OVC040
     FM240000 31010KT P6SM OVC040
     FM241400 31012G20KT P6SM BKN045
     FM241700 31012G20KT P6SM SCT045=



000
FTUS41 KPHI 232100 AAA
TAFTTN
TAF AMD
KTTN 232100Z 2321/2418 32010G18KT P6SM SCT028 OVC045
      TEMPO 2321/2323 -RA OVC028
     FM240000 32008KT P6SM OVC040
     FM241400 32010G18KT P6SM BKN045=



000
FTUS41 KPHI 232000 AAA
TAFRDG
TAF AMD
KRDG 232048Z 2321/2418 33012G20KT P6SM SCT029 OVC045
      TEMPO 2321/2323 OVC029
     FM240000 32008KT P6SM BKN045
     FM241400 32012G20KT P6SM BKN045
     FM241700 32010G18KT P6SM SCT045=



000
FTUS41 KPHI 232000 AAA
TAFMIV
TAF AMD
KMIV 232033Z 2321/2418 31010G18KT P6SM SCT030 OVC045
     FM240000 31006KT P6SM BKN045
     FM241400 31008G16KT P6SM BKN045
     FM241700 31008G16KT P6SM SCT045=



000
FTUS41 KPHI 232000 AAA
TAFPHL
TAF AMD
KPHL 232032Z 2321/2424 32014G24KT P6SM FEW025 OVC045
     FM240000 32010KT P6SM BKN045
     FM241400 32012G20KT P6SM BKN045
     FM241700 32010G18KT P6SM SCT045=



000
FTUS41 KPHI 231900 AAA
TAFACY
TAF AMD
KACY 231941Z 2320/2418 31014G22KT P6SM SCT025 OVC040
      TEMPO 2320/2323 OVC025
     FM240000 31010KT P6SM OVC040
     FM241400 31012G20KT P6SM BKN045
     FM241700 31012G20KT P6SM SCT045=



000
FTUS41 KPHI 231900 AAA
TAFACY
TAF AMD
KACY 231941Z 2320/2418 31014G22KT P6SM SCT025 OVC040
      TEMPO 2320/2323 OVC025
     FM240000 31010KT P6SM OVC040
     FM241400 31012G20KT P6SM BKN045
     FM241700 31012G20KT P6SM SCT045=



000
FTUS41 KPHI 231700
TAFMIV
TAF
KMIV 231732Z 2318/2418 31010G18KT P6SM BKN025 OVC045
     FM232000 31010G18KT P6SM SCT030 OVC045
      TEMPO 2320/2322 OVC030
     FM240000 31006KT P6SM BKN045
     FM241400 31008G16KT P6SM BKN045
     FM241700 31008G16KT P6SM SCT045=



000
FTUS41 KPHI 231700
TAFACY
TAF
KACY 231732Z 2318/2418 31014G22KT P6SM -RA OVC020
     FM232100 31014G22KT P6SM SCT025 OVC045
      TEMPO 2321/2323 OVC025
     FM240000 31010KT P6SM OVC040
     FM241400 31012G20KT P6SM BKN045
     FM241700 31012G20KT P6SM SCT045=



000
FTUS41 KPHI 231700
TAFTTN
TAF
KTTN 231732Z 2318/2418 32010G18KT P6SM SCT025 OVC045
      TEMPO 2318/2321 -RA OVC025
     FM240000 32008KT P6SM OVC040
     FM241400 32010G18KT P6SM BKN045=



000
FTUS41 KPHI 231700
TAFABE
TAF
KABE 231732Z 2318/2418 32014G22KT P6SM SCT025 OVC045
      TEMPO 2318/2321 OVC025
     FM240000 32008KT P6SM OVC040
     FM241400 32012G20KT P6SM BKN045=



000
FTUS41 KPHI 231700
TAFILG
TAF
KILG 231732Z 2318/2418 32014G22KT P6SM OVC045
      TEMPO 2318/2320 OVC030
     FM240000 32010KT P6SM BKN045
     FM241400 32012G20KT P6SM BKN045
     FM241700 32010G18KT P6SM SCT045=



000
FTUS41 KPHI 231700
TAFRDG
TAF
KRDG 231732Z 2318/2418 33012G20KT P6SM SCT025 OVC045
      TEMPO 2318/2321 OVC025
     FM240000 32008KT P6SM BKN045
     FM241400 32012G20KT P6SM BKN045
     FM241700 32010G18KT P6SM SCT045=



000
FTUS41 KPHI 231700
TAFPHL
TAF
KPHL 231732Z 2318/2424 32014G22KT P6SM OVC045
      TEMPO 2318/2320 OVC030
     FM240000 32010KT P6SM BKN045
     FM241400 32012G20KT P6SM BKN045
     FM241700 32010G18KT P6SM SCT045=



000
FTUS41 KPHI 231700
TAFPNE
TAF
KPNE 231732Z 2318/2418 32012G22KT P6SM OVC045
      TEMPO 2318/2320 OVC030
     FM240000 32008KT P6SM BKN045
     FM241400 32012G20KT P6SM BKN045
     FM241700 32010G18KT P6SM SCT045=



000
FTUS41 KPHI 231500 AAB
TAFMIV
TAF AMD
KMIV 231511Z 2315/2412 32012G22KT P6SM BKN015 OVC035
      TEMPO 2315/2318 -RA OVC015
     FM231800 32014G24KT P6SM SCT025 OVC050
      TEMPO 2318/2320 -RA OVC025
     FM240200 32010KT P6SM SCT030 OVC050=



000
FTUS41 KPHI 231500 AAB
TAFACY
TAF AMD
KACY 231511Z 2315/2412 32014G24KT P6SM -RA OVC015
      TEMPO 2317/2319 SCT015 OVC035
     FM231900 32015G25KT P6SM SCT025 OVC050
      TEMPO 2319/2321 -RA OVC025
     FM240200 33012KT P6SM SCT030 OVC050=



000
FTUS41 KPHI 231500 AAB
TAFABE
TAF AMD
KABE 231509Z 2315/2412 33012G22KT P6SM SCT025 OVC040
      TEMPO 2315/2318 -RA OVC025
     FM240100 33010KT P6SM SCT025 OVC050=



000
FTUS41 KPHI 231500 AAB
TAFRDG
TAF AMD
KRDG 231509Z 2315/2412 33012G22KT P6SM SCT025 OVC040
      TEMPO 2315/2318 -RA OVC025
     FM240100 33010KT P6SM SCT025 OVC050=



000
FTUS41 KPHI 231500 AAB
TAFPNE
TAF AMD
KPNE 231507Z 2315/2412 33012G22KT P6SM -RA SCT018 OVC050
      TEMPO 2315/2317 OVC018
     FM231700 32015G25KT P6SM SCT035 OVC050
      TEMPO 2317/2319 -RA OVC035
     FM240200 33012KT P6SM SCT030 OVC050=



000
FTUS41 KPHI 231500 AAB
TAFTTN
TAF AMD
KTTN 231507Z 2315/2412 33012G22KT P6SM -RA SCT018 OVC035
      TEMPO 2315/2317 OVC018
     FM231700 33014G24KT P6SM SCT025 OVC050
      TEMPO 2317/2319 -RA OVC025
     FM240200 33012KT P6SM SCT030 OVC050=



000
FTUS41 KPHI 231500 AAB
TAFPHL
TAF AMD
KPHL 231504Z 2315/2418 32015G25KT P6SM -RA SCT018 OVC050
      TEMPO 2315/2317 OVC018
     FM231700 32015G25KT P6SM SCT035 OVC050
      TEMPO 2317/2319 -RA OVC035
     FM240200 33015KT P6SM SCT030 OVC050
     FM241500 31014G22KT P6SM SCT050 SCT100=



000
FTUS41 KPHI 231500 AAB
TAFILG
TAF AMD
KILG 231504Z 2315/2412 32015G25KT P6SM -RA SCT018 OVC050
      TEMPO 2315/2317 OVC018
     FM231700 32015G25KT P6SM SCT035 OVC050
      TEMPO 2317/2319 -RA OVC035
     FM240200 33012KT P6SM SCT030 OVC050=



000
FTUS41 KPHI 231300 AAA
TAFRDG
TAF AMD
KRDG 231311Z 2313/2412 33010G20KT P6SM SCT020 OVC040
      TEMPO 2313/2317 -RA OVC020
     FM231700 34014G22KT P6SM SCT025 OVC040
     FM240200 33010KT P6SM SCT025 OVC050=



000
FTUS41 KPHI 231300 AAA
TAFABE
TAF AMD
KABE 231311Z 2313/2412 33012G22KT P6SM SCT020 OVC040
      TEMPO 2313/2317 -RA OVC020
     FM231700 34014G22KT P6SM SCT025 OVC040
     FM240200 33010KT P6SM SCT025 OVC050=



000
FTUS41 KPHI 231300 AAA
TAFACY
TAF AMD
KACY 231308Z 2313/2412 32015G25KT P6SM -RA OVC012
      TEMPO 2317/2319 SCT012 OVC035
     FM231900 32015G25KT P6SM SCT025 OVC050
     FM240300 33012KT P6SM SCT030 OVC050=



000
FTUS41 KPHI 231300 AAA
TAFMIV
TAF AMD
KMIV 231308Z 2313/2412 32014G22KT P6SM SCT018 OVC035
      TEMPO 2314/2318 -RA OVC018
     FM231800 32014G24KT P6SM SCT025 OVC050
     FM240300 32010KT P6SM SCT030 OVC050=



000
FTUS41 KPHI 231300 AAA
TAFPNE
TAF AMD
KPNE 231306Z 2313/2412 32014G24KT P6SM SCT018 OVC040
      TEMPO 2313/2317 -RA OVC018
     FM232100 34015G25KT P6SM SCT025 OVC035
     FM240300 33012KT P6SM SCT030 OVC050=



000
FTUS41 KPHI 231300 AAA
TAFTTN
TAF AMD
KTTN 231306Z 2313/2412 33012G22KT P6SM BKN018 OVC025
      TEMPO 2313/2317 -RA SCT018 OVC025
     FM231700 35015G25KT P6SM SCT015 OVC035
     FM232100 34012G22KT P6SM SCT025 OVC050
     FM240300 33012KT P6SM SCT030 OVC050=



000
FTUS41 KPHI 231300 AAA
TAFILG
TAF AMD
KILG 231303Z 2313/2412 32014G22KT P6SM SCT018 OVC040
      TEMPO 2314/2317 -RA OVC018
     FM231700 32015G25KT P6SM SCT025 OVC035
     FM240300 33012KT P6SM SCT030 OVC050=



000
FTUS41 KPHI 231300 AAA
TAFPHL
TAF AMD
KPHL 231303Z 2313/2418 32014G22KT P6SM SCT018 OVC040
      TEMPO 2314/2317 -RA OVC018
     FM231700 33015G25KT P6SM SCT025 OVC035
     FM240300 33015KT P6SM SCT030 OVC050
     FM241500 31014G22KT P6SM SCT050 SCT100=



000
FTUS41 KPHI 231100
TAFABE
TAF
KABE 231121Z 2312/2412 34017G28KT P6SM SCT015 OVC035
      TEMPO 2314/2318 6SM -RA OVC015
     FM232100 34016G24KT P6SM SCT025 OVC050
     FM240200 33010KT P6SM SCT025 OVC050=



000
FTUS41 KPHI 231100
TAFPHL
TAF
KPHL 231121Z 2312/2418 32014G22KT P6SM -RA SCT025 OVC035
     FM231300 32017G30KT P6SM -RA SCT015 OVC035
      TEMPO 2314/2317 OVC015
     FM231700 33017G30KT P6SM SCT025 OVC035
     FM232100 33015G24KT P6SM SCT025 OVC035
     FM240300 33015KT P6SM SCT030 OVC050
     FM241500 31015G22KT P6SM SCT050 SCT100=



000
FTUS41 KPHI 231100
TAFMIV
TAF
KMIV 231121Z 2312/2412 34012G22KT P6SM -RA SCT015 OVC025
     FM231400 32017G25KT P6SM SCT015 OVC035
      TEMPO 2315/2318 6SM -RA OVC015
     FM231900 32014G25KT P6SM SCT025 OVC050
     FM240300 32010KT P6SM SCT030 OVC050=



000
FTUS41 KPHI 231100
TAFTTN
TAF
KTTN 231121Z 2312/2412 35015G23KT P6SM -RA OVC025
     FM231600 35017G30KT P6SM SCT015 OVC035
      TEMPO 2316/2318 6SM -RA OVC015
     FM232100 34012G21KT P6SM SCT025 OVC050
     FM240300 33012KT P6SM SCT030 OVC050=



000
FTUS41 KPHI 231100
TAFILG
TAF
KILG 231121Z 2312/2412 32014G22KT P6SM -RA SCT025 OVC040
     FM231400 33017G30KT P6SM -RA SCT015 OVC035
      TEMPO 2314/2317 OVC015
     FM231700 32015G30KT P6SM SCT025 OVC035
     FM240300 33012KT P6SM SCT030 OVC050=



000
FTUS41 KPHI 231100
TAFACY
TAF
KACY 231121Z 2312/2412 33016G25KT P6SM -RA SCT015 OVC025
      TEMPO 2315/2318 6SM -RA OVC015
     FM231900 32015G25KT P6SM SCT025 OVC050
     FM240300 33012KT P6SM SCT030 OVC050=



000
FTUS41 KPHI 231100
TAFRDG
TAF
KRDG 231121Z 2312/2412 33017G28KT P6SM SCT015 OVC035
      TEMPO 2314/2318 6SM -RA OVC015
     FM232000 34017G23KT P6SM SCT025 OVC050
     FM240200 33010KT P6SM SCT025 OVC050=



000
FTUS41 KPHI 231100
TAFPNE
TAF
KPNE 231121Z 2312/2412 34014G22KT P6SM -RA SCT015 OVC035
     FM231400 32017G30KT P6SM SCT015 OVC035
      TEMPO 2314/2317 6SM -RA OVC015
     FM232100 34015G24KT P6SM SCT025 OVC050
     FM240300 33012KT P6SM SCT030 OVC050=



000
FTUS41 KPHI 230900 AAA
TAFPHL
TAF AMD
KPHL 230902Z 2309/2412 32014G22KT P6SM -RA SCT015 OVC025
      TEMPO 2309/2313 SCT025 BKN035
     FM231300 32017G30KT P6SM SCT025 OVC035
      TEMPO 2314/2317 P6SM -RA OVC025
     FM231700 33017G30KT P6SM OVC035
     FM232100 33015G24KT P6SM SCT025 OVC035
     FM240300 33012KT P6SM SCT030 OVC050=



000
FTUS41 KPHI 230800 AAA
TAFTTN
TAF AMD
KTTN 230804Z 2308/2406 35015G23KT P6SM -RA OVC025
      TEMPO 2309/2312 OVC015
     FM231600 35017G30KT P6SM OVC025
      TEMPO 2316/2318 P6SM -RA OVC015
     FM232100 34012G21KT P6SM SCT025 OVC050
     FM240300 33012KT P6SM SCT030 OVC050=



000
FTUS41 KPHI 230800 AAA
TAFTTN
TAF AMD
KTTN 230804Z 2308/2406 35015G23KT P6SM -RA OVC025
      TEMPO 2309/2312 OVC015
     FM231600 35017G30KT P6SM OVC025
      TEMPO 2316/2318 P6SM -RA OVC015
     FM232100 34012G21KT P6SM SCT025 OVC050
     FM240300 33012KT P6SM SCT030 OVC050=



    US Dept of Commerce
    National Oceanic and Atmospheric Administration
    National Weather Service
    1325 East West Highway
    Silver Spring, MD 20910
    Page Author: NWS Internet Services Team
Disclaimer
Information Quality
Credits
Glossary
Privacy Policy
Freedom of Information Act (FOIA)
About Us
Career Opportunities